Time,TemperatureF,DewpointF,PressureIn,WindDirection,WindDirectionDegrees,WindSpeedMPH,WindSpeedGustMPH,Humidity,HourlyPrecipIn,Conditions,Clouds,dailyrainin,SoftwareType,DateUTC
2013-01-20 00:00:00,43.0,29.0,30.18,North,-999,-999.0,-999.0,57,-99.99,,,-99.99,,2013-01-20 06:00:00,
2013-01-20 00:02:00,45.0,32.0,30.17,North,-999,-999.0,-999.0,60,-99.99,,,-99.99,,2013-01-20 06:02:00,
2013-01-20 00:12:00,44.0,30.0,30.18,North,-999,-999.0,-999.0,57,-99.99,,,-99.99,,2013-01-20 06:12:00,
2013-01-20 00:22:00,44.0,30.0,30.18,North,-999,-999.0,-999.0,57,-99.99,,,-99.99,,2013-01-20 06:22:00,
2013-01-20 00:33:00,44.0,29.0,30.18,North,-999,-999.0,-999.0,57,-99.99,,,-99.99,,2013-01-20 06:33:00,
2013-01-20 00:42:00,43.0,29.0,30.18,North,-999,-999.0,-999.0,57,-99.99,,,-99.99,,2013-01-20 06:42:00,
2013-01-20 00:52:00,43.0,29.0,30.18,North,-999,-999.0,-999.0,57,-99.99,,,-99.99,,2013-01-20 06:52:00,
2013-01-20 01:12:00,41.0,27.0,30.18,North,-999,-999.0,-999.0,59,-99.99,,,-99.99,,2013-01-20 07:12:00,
2013-01-20 01:22:00,41.0,27.0,30.18,North,-999,-999.0,-999.0,59,-99.99,,,-99.99,,2013-01-20 07:22:00,
2013-01-20 01:32:00,39.0,27.0,30.19,North,-999,-999.0,-999.0,61,-99.99,,,-99.99,,2013-01-20 07:32:00,
2013-01-20 01:42:00,38.0,27.0,30.19,North,-999,-999.0,-999.0,63,-99.99,,,-99.99,,2013-01-20 07:42:00,
2013-01-20 01:52:00,38.0,27.0,30.19,North,-999,-999.0,-999.0,63,-99.99,,,-99.99,,2013-01-20 07:52:00,
2013-01-20 02:02:00,37.0,26.0,30.19,North,-999,-999.0,-999.0,65,-99.99,,,-99.99,,2013-01-20 08:02:00,
2013-01-20 02:12:00,37.0,26.0,30.19,North,-999,-999.0,-999.0,65,-99.99,,,-99.99,,2013-01-20 08:12:00,
2013-01-20 02:22:00,37.0,26.0,30.19,North,-999,-999.0,-999.0,65,-99.99,,,-99.99,,2013-01-20 08:22:00,
2013-01-20 02:32:00,36.0,26.0,30.19,North,-999,-999.0,-999.0,66,-99.99,,,-99.99,,2013-01-20 08:32:00,
2013-01-20 02:42:00,36.0,26.0,30.20,North,-999,-999.0,-999.0,66,-99.99,,,-99.99,,2013-01-20 08:42:00,
2013-01-20 02:52:00,36.0,26.0,30.20,North,-999,-999.0,-999.0,66,-99.99,,,-99.99,,2013-01-20 08:52:00,
2013-01-20 03:02:00,35.0,25.0,30.20,North,-999,-999.0,-999.0,67,-99.99,,,-99.99,,2013-01-20 09:02:00,
2013-01-20 03:12:00,35.0,25.0,30.20,North,-999,-999.0,-999.0,68,-99.99,,,-99.99,,2013-01-20 09:12:00,
2013-01-20 03:22:00,35.0,25.0,30.20,North,-999,-999.0,-999.0,68,-99.99,,,-99.99,,2013-01-20 09:22:00,
2013-01-20 03:33:00,33.0,26.0,30.21,North,-999,-999.0,-999.0,73,-99.99,,,-99.99,,2013-01-20 09:33:00,
2013-01-20 03:42:00,34.0,26.0,30.21,North,-999,-999.0,-999.0,73,-99.99,,,-99.99,,2013-01-20 09:42:00,
2013-01-20 03:52:00,36.0,26.0,30.22,North,-999,-999.0,-999.0,68,-99.99,,,-99.99,,2013-01-20 09:52:00,
2013-01-20 04:02:00,36.0,26.0,30.22,North,-999,-999.0,-999.0,68,-99.99,,,-99.99,,2013-01-20 10:02:00,
2013-01-20 04:12:00,36.0,26.0,30.22,North,-999,-999.0,-999.0,68,-99.99,,,-99.99,,2013-01-20 10:12:00,
2013-01-20 04:22:00,36.0,26.0,30.22,North,-999,-999.0,-999.0,68,-99.99,,,-99.99,,2013-01-20 10:22:00,
2013-01-20 04:32:00,35.0,26.0,30.21,North,-999,-999.0,-999.0,69,-99.99,,,-99.99,,2013-01-20 10:32:00,
2013-01-20 04:42:00,35.0,26.0,30.21,North,-999,-999.0,-999.0,69,-99.99,,,-99.99,,2013-01-20 10:42:00,
2013-01-20 04:52:00,35.0,26.0,30.21,North,-999,-999.0,-999.0,69,-99.99,,,-99.99,,2013-01-20 10:52:00,
2013-01-20 05:02:00,35.0,26.0,30.22,North,-999,-999.0,-999.0,69,-99.99,,,-99.99,,2013-01-20 11:02:00,
2013-01-20 05:12:00,34.0,26.0,30.22,North,-999,-999.0,-999.0,70,-99.99,,,-99.99,,2013-01-20 11:12:00,
2013-01-20 05:22:00,34.0,26.0,30.22,North,-999,-999.0,-999.0,70,-99.99,,,-99.99,,2013-01-20 11:22:00,
2013-01-20 05:33:00,34.0,26.0,30.21,North,-999,-999.0,-999.0,71,-99.99,,,-99.99,,2013-01-20 11:33:00,
2013-01-20 05:42:00,34.0,26.0,30.21,North,-999,-999.0,-999.0,71,-99.99,,,-99.99,,2013-01-20 11:42:00,
2013-01-20 05:53:00,34.0,26.0,30.21,North,-999,-999.0,-999.0,71,-99.99,,,-99.99,,2013-01-20 11:53:00,
2013-01-20 06:03:00,34.0,26.0,30.21,North,-999,-999.0,-999.0,72,-99.99,,,-99.99,,2013-01-20 12:03:00,
2013-01-20 06:12:00,34.0,25.0,30.21,North,-999,-999.0,-999.0,71,-99.99,,,-99.99,,2013-01-20 12:12:00,
2013-01-20 06:23:00,34.0,25.0,30.21,North,-999,-999.0,-999.0,71,-99.99,,,-99.99,,2013-01-20 12:23:00,
2013-01-20 06:33:00,33.0,25.0,30.22,North,-999,-999.0,-999.0,71,-99.99,,,-99.99,,2013-01-20 12:33:00,
2013-01-20 06:43:00,33.0,25.0,30.22,North,-999,-999.0,-999.0,72,-99.99,,,-99.99,,2013-01-20 12:43:00,
2013-01-20 06:52:00,33.0,25.0,30.22,North,-999,-999.0,-999.0,72,-99.99,,,-99.99,,2013-01-20 12:52:00,
2013-01-20 07:03:00,33.0,22.0,30.22,North,-999,-999.0,-999.0,64,-99.99,,,-99.99,,2013-01-20 13:03:00,
2013-01-20 07:12:00,33.0,20.0,30.22,North,-999,-999.0,-999.0,59,-99.99,,,-99.99,,2013-01-20 13:12:00,
2013-01-20 07:23:00,33.0,20.0,30.22,North,-999,-999.0,-999.0,59,-99.99,,,-99.99,,2013-01-20 13:23:00,
2013-01-20 07:33:00,32.0,18.0,30.22,North,-999,-999.0,-999.0,57,-99.99,,,-99.99,,2013-01-20 13:33:00,
2013-01-20 07:43:00,31.0,17.0,30.23,North,-999,-999.0,-999.0,57,-99.99,,,-99.99,,2013-01-20 13:43:00,
2013-01-20 07:52:00,31.0,17.0,30.23,North,-999,-999.0,-999.0,57,-99.99,,,-99.99,,2013-01-20 13:52:00,
2013-01-20 08:02:00,29.0,17.0,30.23,North,-999,-999.0,-999.0,60,-99.99,,,-99.99,,2013-01-20 14:02:00,
2013-01-20 08:12:00,28.0,16.0,30.24,North,-999,-999.0,-999.0,60,-99.99,,,-99.99,,2013-01-20 14:12:00,
2013-01-20 08:23:00,28.0,16.0,30.24,North,-999,-999.0,-999.0,60,-99.99,,,-99.99,,2013-01-20 14:23:00,
2013-01-20 08:33:00,29.0,17.0,30.23,North,-999,-999.0,-999.0,59,-99.99,,,-99.99,,2013-01-20 14:33:00,
2013-01-20 08:43:00,30.0,17.0,30.24,North,-999,-999.0,-999.0,57,-99.99,,,-99.99,,2013-01-20 14:43:00,
2013-01-20 08:53:00,30.0,17.0,30.24,North,-999,-999.0,-999.0,57,-99.99,,,-99.99,,2013-01-20 14:53:00,
2013-01-20 09:03:00,33.0,18.0,30.24,North,-999,-999.0,-999.0,55,-99.99,,,-99.99,,2013-01-20 15:03:00,
2013-01-20 09:12:00,34.0,19.0,30.24,North,-999,-999.0,-999.0,55,-99.99,,,-99.99,,2013-01-20 15:12:00,
2013-01-20 09:23:00,34.0,19.0,30.24,North,-999,-999.0,-999.0,55,-99.99,,,-99.99,,2013-01-20 15:23:00,
2013-01-20 09:33:00,35.0,17.0,30.24,North,-999,-999.0,-999.0,48,-99.99,,,-99.99,,2013-01-20 15:33:00,
2013-01-20 09:42:00,35.0,15.0,30.24,North,-999,-999.0,-999.0,44,-99.99,,,-99.99,,2013-01-20 15:42:00,
2013-01-20 09:52:00,35.0,15.0,30.24,North,-999,-999.0,-999.0,44,-99.99,,,-99.99,,2013-01-20 15:52:00,
2013-01-20 10:03:00,36.0,16.0,30.23,North,-999,-999.0,-999.0,43,-99.99,,,-99.99,,2013-01-20 16:03:00,
2013-01-20 10:12:00,37.0,16.0,30.24,North,-999,-999.0,-999.0,42,-99.99,,,-99.99,,2013-01-20 16:12:00,
2013-01-20 10:23:00,37.0,16.0,30.24,North,-999,-999.0,-999.0,42,-99.99,,,-99.99,,2013-01-20 16:23:00,
2013-01-20 10:33:00,38.0,14.0,30.24,North,-999,-999.0,-999.0,38,-99.99,,,-99.99,,2013-01-20 16:33:00,
2013-01-20 10:43:00,38.0,16.0,30.24,North,-999,-999.0,-999.0,40,-99.99,,,-99.99,,2013-01-20 16:43:00,
2013-01-20 10:52:00,38.0,16.0,30.24,North,-999,-999.0,-999.0,40,-99.99,,,-99.99,,2013-01-20 16:52:00,
2013-01-20 11:03:00,39.0,15.0,30.25,North,-999,-999.0,-999.0,37,-99.99,,,-99.99,,2013-01-20 17:03:00,
2013-01-20 11:13:00,40.0,15.0,30.25,North,-999,-999.0,-999.0,35,-99.99,,,-99.99,,2013-01-20 17:13:00,
2013-01-20 11:22:00,40.0,15.0,30.25,North,-999,-999.0,-999.0,35,-99.99,,,-99.99,,2013-01-20 17:22:00,
2013-01-20 11:33:00,41.0,13.0,30.24,North,-999,-999.0,-999.0,31,-99.99,,,-99.99,,2013-01-20 17:33:00,
2013-01-20 11:42:00,42.0,14.0,30.24,North,-999,-999.0,-999.0,32,-99.99,,,-99.99,,2013-01-20 17:42:00,
2013-01-20 11:52:00,42.0,14.0,30.24,North,-999,-999.0,-999.0,32,-99.99,,,-99.99,,2013-01-20 17:52:00,
2013-01-20 12:03:00,44.0,14.0,30.23,North,-999,-999.0,-999.0,30,-99.99,,,-99.99,,2013-01-20 18:03:00,
2013-01-20 12:13:00,44.0,14.0,30.23,North,-999,-999.0,-999.0,29,-99.99,,,-99.99,,2013-01-20 18:13:00,
2013-01-20 12:23:00,44.0,14.0,30.23,North,-999,-999.0,-999.0,29,-99.99,,,-99.99,,2013-01-20 18:23:00,
2013-01-20 12:33:00,45.0,12.0,30.21,North,-999,-999.0,-999.0,26,-99.99,,,-99.99,,2013-01-20 18:33:00,
2013-01-20 12:43:00,46.0,12.0,30.21,North,-999,-999.0,-999.0,25,-99.99,,,-99.99,,2013-01-20 18:43:00,
2013-01-20 12:53:00,46.0,12.0,30.21,North,-999,-999.0,-999.0,25,-99.99,,,-99.99,,2013-01-20 18:53:00,
2013-01-20 13:02:00,48.0,13.0,30.20,North,-999,-999.0,-999.0,24,-99.99,,,-99.99,,2013-01-20 19:02:00,
2013-01-20 13:12:00,48.0,13.0,30.19,North,-999,-999.0,-999.0,24,-99.99,,,-99.99,,2013-01-20 19:12:00,
2013-01-20 13:22:00,48.0,13.0,30.19,North,-999,-999.0,-999.0,24,-99.99,,,-99.99,,2013-01-20 19:22:00,
2013-01-20 13:33:00,49.0,13.0,30.18,North,-999,-999.0,-999.0,23,-99.99,,,-99.99,,2013-01-20 19:33:00,
2013-01-20 13:43:00,49.0,14.0,30.18,North,-999,-999.0,-999.0,24,-99.99,,,-99.99,,2013-01-20 19:43:00,
2013-01-20 13:52:00,49.0,14.0,30.18,North,-999,-999.0,-999.0,24,-99.99,,,-99.99,,2013-01-20 19:52:00,
2013-01-20 14:03:00,49.0,12.0,30.17,North,-999,-999.0,-999.0,22,-99.99,,,-99.99,,2013-01-20 20:03:00,
2013-01-20 14:12:00,50.0,14.0,30.17,North,-999,-999.0,-999.0,24,-99.99,,,-99.99,,2013-01-20 20:12:00,
2013-01-20 14:23:00,50.0,14.0,30.17,North,-999,-999.0,-999.0,24,-99.99,,,-99.99,,2013-01-20 20:23:00,
2013-01-20 14:33:00,50.0,14.0,30.17,North,-999,-999.0,-999.0,23,-99.99,,,-99.99,,2013-01-20 20:33:00,
2013-01-20 14:42:00,50.0,14.0,30.17,North,-999,-999.0,-999.0,23,-99.99,,,-99.99,,2013-01-20 20:42:00,
2013-01-20 14:53:00,50.0,14.0,30.17,North,-999,-999.0,-999.0,23,-99.99,,,-99.99,,2013-01-20 20:53:00,
2013-01-20 15:03:00,50.0,14.0,30.17,North,-999,-999.0,-999.0,24,-99.99,,,-99.99,,2013-01-20 21:03:00,
2013-01-20 15:13:00,49.0,14.0,30.17,North,-999,-999.0,-999.0,24,-99.99,,,-99.99,,2013-01-20 21:13:00,
2013-01-20 15:23:00,49.0,14.0,30.17,North,-999,-999.0,-999.0,24,-99.99,,,-99.99,,2013-01-20 21:23:00,
2013-01-20 15:33:00,48.0,14.0,30.17,North,-999,-999.0,-999.0,25,-99.99,,,-99.99,,2013-01-20 21:33:00,
2013-01-20 15:43:00,49.0,14.0,30.17,North,-999,-999.0,-999.0,24,-99.99,,,-99.99,,2013-01-20 21:43:00,
2013-01-20 15:53:00,49.0,14.0,30.17,North,-999,-999.0,-999.0,24,-99.99,,,-99.99,,2013-01-20 21:53:00,
2013-01-20 16:03:00,49.0,15.0,30.16,North,-999,-999.0,-999.0,25,-99.99,,,-99.99,,2013-01-20 22:03:00,
2013-01-20 16:13:00,49.0,15.0,30.16,North,-999,-999.0,-999.0,26,-99.99,,,-99.99,,2013-01-20 22:13:00,
2013-01-20 16:23:00,49.0,15.0,30.16,North,-999,-999.0,-999.0,26,-99.99,,,-99.99,,2013-01-20 22:23:00,
2013-01-20 16:33:00,48.0,14.0,30.17,North,-999,-999.0,-999.0,25,-99.99,,,-99.99,,2013-01-20 22:33:00,
2013-01-20 16:43:00,48.0,13.0,30.16,North,-999,-999.0,-999.0,24,-99.99,,,-99.99,,2013-01-20 22:43:00,
2013-01-20 16:52:00,47.0,14.0,30.16,North,-999,-999.0,-999.0,26,-99.99,,,-99.99,,2013-01-20 22:52:00,
2013-01-20 17:03:00,47.0,14.0,30.16,North,-999,-999.0,-999.0,26,-99.99,,,-99.99,,2013-01-20 23:03:00,
2013-01-20 17:13:00,46.0,13.0,30.17,North,-999,-999.0,-999.0,26,-99.99,,,-99.99,,2013-01-20 23:13:00,
2013-01-20 17:23:00,46.0,13.0,30.17,North,-999,-999.0,-999.0,26,-99.99,,,-99.99,,2013-01-20 23:23:00,
2013-01-20 17:33:00,45.0,13.0,30.17,North,-999,-999.0,-999.0,27,-99.99,,,-99.99,,2013-01-20 23:33:00,
2013-01-20 17:43:00,44.0,13.0,30.17,North,-999,-999.0,-999.0,28,-99.99,,,-99.99,,2013-01-20 23:43:00,
2013-01-20 17:53:00,44.0,13.0,30.17,North,-999,-999.0,-999.0,28,-99.99,,,-99.99,,2013-01-20 23:53:00,
2013-01-20 18:03:00,43.0,13.0,30.16,North,-999,-999.0,-999.0,29,-99.99,,,-99.99,,2013-01-21 00:03:00,
2013-01-20 18:13:00,42.0,13.0,30.17,North,-999,-999.0,-999.0,30,-99.99,,,-99.99,,2013-01-21 00:13:00,
2013-01-20 18:23:00,42.0,13.0,30.17,North,-999,-999.0,-999.0,30,-99.99,,,-99.99,,2013-01-21 00:23:00,
2013-01-20 18:33:00,40.0,13.0,30.17,North,-999,-999.0,-999.0,32,-99.99,,,-99.99,,2013-01-21 00:33:00,
2013-01-20 18:43:00,40.0,12.0,30.17,North,-999,-999.0,-999.0,32,-99.99,,,-99.99,,2013-01-21 00:43:00,
2013-01-20 18:53:00,40.0,12.0,30.17,North,-999,-999.0,-999.0,32,-99.99,,,-99.99,,2013-01-21 00:53:00,
2013-01-20 19:00:00,36.0,13.0,30.17,North,-999,-999.0,-999.0,37,-99.99,,,-99.99,,2013-01-21 01:00:00,
2013-01-20 19:03:00,38.0,12.0,30.17,North,-999,-999.0,-999.0,33,-99.99,,,-99.99,,2013-01-21 01:03:00,
2013-01-20 19:13:00,38.0,12.0,30.17,North,-999,-999.0,-999.0,34,-99.99,,,-99.99,,2013-01-21 01:13:00,
2013-01-20 19:23:00,38.0,12.0,30.17,North,-999,-999.0,-999.0,34,-99.99,,,-99.99,,2013-01-21 01:23:00,
2013-01-20 19:33:00,37.0,12.0,30.17,North,-999,-999.0,-999.0,36,-99.99,,,-99.99,,2013-01-21 01:33:00,
2013-01-20 19:43:00,36.0,13.0,30.17,North,-999,-999.0,-999.0,37,-99.99,,,-99.99,,2013-01-21 01:43:00,
2013-01-20 19:53:00,36.0,13.0,30.17,North,-999,-999.0,-999.0,37,-99.99,,,-99.99,,2013-01-21 01:53:00,
2013-01-20 20:12:00,35.0,15.0,30.18,North,-999,-999.0,-999.0,44,-99.99,,,-99.99,,2013-01-21 02:12:00,
2013-01-20 20:23:00,35.0,15.0,30.18,North,-999,-999.0,-999.0,44,-99.99,,,-99.99,,2013-01-21 02:23:00,
2013-01-20 20:33:00,34.0,15.0,30.18,North,-999,-999.0,-999.0,46,-99.99,,,-99.99,,2013-01-21 02:33:00,
2013-01-20 20:43:00,33.0,14.0,30.18,North,-999,-999.0,-999.0,45,-99.99,,,-99.99,,2013-01-21 02:43:00,
2013-01-20 20:53:00,33.0,14.0,30.18,North,-999,-999.0,-999.0,45,-99.99,,,-99.99,,2013-01-21 02:53:00,
2013-01-20 21:00:00,31.0,11.0,30.20,North,-999,-999.0,-999.0,44,-99.99,,,-99.99,,2013-01-21 03:00:00,
2013-01-20 21:03:00,32.0,14.0,30.19,North,-999,-999.0,-999.0,47,-99.99,,,-99.99,,2013-01-21 03:03:00,
2013-01-20 21:13:00,32.0,13.0,30.19,North,-999,-999.0,-999.0,46,-99.99,,,-99.99,,2013-01-21 03:13:00,
2013-01-20 21:23:00,32.0,13.0,30.19,North,-999,-999.0,-999.0,46,-99.99,,,-99.99,,2013-01-21 03:23:00,
2013-01-20 21:33:00,31.0,11.0,30.20,North,-999,-999.0,-999.0,43,-99.99,,,-99.99,,2013-01-21 03:33:00,
2013-01-20 21:43:00,31.0,11.0,30.20,North,-999,-999.0,-999.0,44,-99.99,,,-99.99,,2013-01-21 03:43:00,
2013-01-20 21:52:00,31.0,11.0,30.20,North,-999,-999.0,-999.0,44,-99.99,,,-99.99,,2013-01-21 03:52:00,
2013-01-20 22:12:00,29.0,11.0,30.21,North,-999,-999.0,-999.0,46,-99.99,,,-99.99,,2013-01-21 04:12:00,
2013-01-20 22:23:00,29.0,11.0,30.21,North,-999,-999.0,-999.0,46,-99.99,,,-99.99,,2013-01-21 04:23:00,
2013-01-20 22:33:00,28.0,12.0,30.22,North,-999,-999.0,-999.0,49,-99.99,,,-99.99,,2013-01-21 04:33:00,
2013-01-20 22:43:00,28.0,11.0,30.23,North,-999,-999.0,-999.0,49,-99.99,,,-99.99,,2013-01-21 04:43:00,
2013-01-20 22:53:00,28.0,11.0,30.23,North,-999,-999.0,-999.0,49,-99.99,,,-99.99,,2013-01-21 04:53:00,
2013-01-20 23:03:00,27.0,12.0,30.23,North,-999,-999.0,-999.0,51,-99.99,,,-99.99,,2013-01-21 05:03:00,
2013-01-20 23:12:00,27.0,12.0,30.23,North,-999,-999.0,-999.0,51,-99.99,,,-99.99,,2013-01-21 05:12:00,
2013-01-20 23:22:00,27.0,12.0,30.23,North,-999,-999.0,-999.0,51,-99.99,,,-99.99,,2013-01-21 05:22:00,
2013-01-20 23:34:00,27.0,12.0,30.24,North,-999,-999.0,-999.0,52,-99.99,,,-99.99,,2013-01-21 05:34:00,
2013-01-20 23:42:00,27.0,12.0,30.25,North,-999,-999.0,-999.0,52,-99.99,,,-99.99,,2013-01-21 05:42:00,
2013-01-20 23:52:00,27.0,12.0,30.25,North,-999,-999.0,-999.0,52,-99.99,,,-99.99,,2013-01-21 05:52:00,